sensor_id;sensor_type;location;lat;lon;timestamp;temperature;humidity
25718;DHT22;13574;52.040;5.692;2023-02-28T00:00:50;5.00;99.90
25718;DHT22;13574;52.040;5.692;2023-02-28T00:03:16;5.00;99.90
25718;DHT22;13574;52.040;5.692;2023-02-28T00:05:41;5.10;99.90
25718;DHT22;13574;52.040;5.692;2023-02-28T00:08:08;4.90;99.90
25718;DHT22;13574;52.040;5.692;2023-02-28T00:10:34;5.10;99.90
25718;DHT22;13574;52.040;5.692;2023-02-28T00:13:04;4.60;99.90
25718;DHT22;13574;52.040;5.692;2023-02-28T00:15:31;4.90;99.90
25718;DHT22;13574;52.040;5.692;2023-02-28T00:17:57;5.00;99.90
25718;DHT22;13574;52.040;5.692;2023-02-28T00:20:23;5.10;99.90
25718;DHT22;13574;52.040;5.692;2023-02-28T00:22:50;5.30;99.90
25718;DHT22;13574;52.040;5.692;2023-02-28T00:25:20;5.40;99.90
25718;DHT22;13574;52.040;5.692;2023-02-28T00:27:47;5.50;99.90
25718;DHT22;13574;52.040;5.692;2023-02-28T00:30:16;5.50;99.90
25718;DHT22;13574;52.040;5.692;2023-02-28T00:32:43;5.70;99.90
25718;DHT22;13574;52.040;5.692;2023-02-28T00:35:10;5.70;99.90
25718;DHT22;13574;52.040;5.692;2023-02-28T00:37:36;5.70;99.90
25718;DHT22;13574;52.040;5.692;2023-02-28T00:40:01;5.70;99.90
25718;DHT22;13574;52.040;5.692;2023-02-28T00:42:30;5.60;99.90
25718;DHT22;13574;52.040;5.692;2023-02-28T00:44:55;5.70;99.90
25718;DHT22;13574;52.040;5.692;2023-02-28T00:47:21;5.50;99.90
25718;DHT22;13574;52.040;5.692;2023-02-28T00:49:47;5.40;99.90
25718;DHT22;13574;52.040;5.692;2023-02-28T00:52:13;5.10;99.90
25718;DHT22;13574;52.040;5.692;2023-02-28T00:54:38;4.90;99.90
25718;DHT22;13574;52.040;5.692;2023-02-28T00:57:04;4.90;99.90
25718;DHT22;13574;52.040;5.692;2023-02-28T00:59:32;5.20;99.90
25718;DHT22;13574;52.040;5.692;2023-02-28T01:01:58;5.40;99.90
25718;DHT22;13574;52.040;5.692;2023-02-28T01:04:23;5.60;99.90
25718;DHT22;13574;52.040;5.692;2023-02-28T01:06:49;5.70;99.90
25718;DHT22;13574;52.040;5.692;2023-02-28T01:09:15;5.70;99.90
25718;DHT22;13574;52.040;5.692;2023-02-28T01:11:41;5.50;99.90
25718;DHT22;13574;52.040;5.692;2023-02-28T01:14:15;5.70;99.90
25718;DHT22;13574;52.040;5.692;2023-02-28T01:16:41;5.90;99.90
25718;DHT22;13574;52.040;5.692;2023-02-28T01:19:07;6.10;99.90
25718;DHT22;13574;52.040;5.692;2023-02-28T01:21:32;6.20;99.90
25718;DHT22;13574;52.040;5.692;2023-02-28T01:24:00;6.10;99.90
25718;DHT22;13574;52.040;5.692;2023-02-28T01:26:26;6.20;99.90
25718;DHT22;13574;52.040;5.692;2023-02-28T01:28:52;5.70;99.90
25718;DHT22;13574;52.040;5.692;2023-02-28T01:31:19;5.90;99.90
25718;DHT22;13574;52.040;5.692;2023-02-28T01:33:46;6.10;99.90
25718;DHT22;13574;52.040;5.692;2023-02-28T01:36:15;5.70;99.90
25718;DHT22;13574;52.040;5.692;2023-02-28T01:38:42;6.00;99.90
25718;DHT22;13574;52.040;5.692;2023-02-28T01:41:08;6.10;99.90
25718;DHT22;13574;52.040;5.692;2023-02-28T01:46:09;6.00;99.90
25718;DHT22;13574;52.040;5.692;2023-02-28T01:48:38;6.10;99.90
25718;DHT22;13574;52.040;5.692;2023-02-28T01:51:11;6.40;99.90
25718;DHT22;13574;52.040;5.692;2023-02-28T01:53:44;6.00;99.90
25718;DHT22;13574;52.040;5.692;2023-02-28T01:56:12;6.00;99.90
25718;DHT22;13574;52.040;5.692;2023-02-28T01:58:39;6.10;99.90
25718;DHT22;13574;52.040;5.692;2023-02-28T02:01:05;6.10;99.90
25718;DHT22;13574;52.040;5.692;2023-02-28T02:03:31;6.10;99.90
25718;DHT22;13574;52.040;5.692;2023-02-28T02:05:57;6.20;99.90
25718;DHT22;13574;52.040;5.692;2023-02-28T02:08:25;6.40;99.90
25718;DHT22;13574;52.040;5.692;2023-02-28T02:10:56;6.50;99.90
25718;DHT22;13574;52.040;5.692;2023-02-28T02:18:54;6.60;99.90
25718;DHT22;13574;52.040;5.692;2023-02-28T02:27:20;6.10;99.90
25718;DHT22;13574;52.040;5.692;2023-02-28T02:44:15;6.30;99.90
25718;DHT22;13574;52.040;5.692;2023-02-28T02:46:48;6.50;99.90
25718;DHT22;13574;52.040;5.692;2023-02-28T02:49:30;6.40;99.90
25718;DHT22;13574;52.040;5.692;2023-02-28T02:51:57;6.40;99.90
25718;DHT22;13574;52.040;5.692;2023-02-28T02:54:28;6.40;99.90
25718;DHT22;13574;52.040;5.692;2023-02-28T02:56:57;6.60;99.90
25718;DHT22;13574;52.040;5.692;2023-02-28T02:59:27;6.60;99.90
25718;DHT22;13574;52.040;5.692;2023-02-28T03:01:56;6.60;99.90
25718;DHT22;13574;52.040;5.692;2023-02-28T03:04:24;6.70;99.90
25718;DHT22;13574;52.040;5.692;2023-02-28T03:06:52;6.70;99.90
25718;DHT22;13574;52.040;5.692;2023-02-28T03:09:22;6.70;99.90
25718;DHT22;13574;52.040;5.692;2023-02-28T03:11:49;6.20;99.90
25718;DHT22;13574;52.040;5.692;2023-02-28T03:17:35;6.50;99.90
25718;DHT22;13574;52.040;5.692;2023-02-28T03:20:53;6.60;99.90
25718;DHT22;13574;52.040;5.692;2023-02-28T03:23:19;6.60;99.90
25718;DHT22;13574;52.040;5.692;2023-02-28T03:25:54;6.70;99.90
25718;DHT22;13574;52.040;5.692;2023-02-28T03:31:18;6.60;99.90
25718;DHT22;13574;52.040;5.692;2023-02-28T03:33:55;6.50;99.90
25718;DHT22;13574;52.040;5.692;2023-02-28T03:36:28;6.70;99.90
25718;DHT22;13574;52.040;5.692;2023-02-28T03:38:59;6.60;99.90
25718;DHT22;13574;52.040;5.692;2023-02-28T03:41:48;6.50;99.90
25718;DHT22;13574;52.040;5.692;2023-02-28T03:47:13;6.00;99.90
25718;DHT22;13574;52.040;5.692;2023-02-28T03:49:54;5.80;99.90
25718;DHT22;13574;52.040;5.692;2023-02-28T03:52:27;5.70;99.90
25718;DHT22;13574;52.040;5.692;2023-02-28T03:54:58;5.50;99.90
25718;DHT22;13574;52.040;5.692;2023-02-28T04:01:06;5.60;99.90
25718;DHT22;13574;52.040;5.692;2023-02-28T04:02:59;5.70;99.90
25718;DHT22;13574;52.040;5.692;2023-02-28T04:05:25;5.70;99.90
25718;DHT22;13574;52.040;5.692;2023-02-28T04:07:52;5.50;99.90
25718;DHT22;13574;52.040;5.692;2023-02-28T04:10:19;5.30;99.90
25718;DHT22;13574;52.040;5.692;2023-02-28T04:12:45;5.20;99.90
25718;DHT22;13574;52.040;5.692;2023-02-28T04:15:11;5.40;99.90
25718;DHT22;13574;52.040;5.692;2023-02-28T04:17:36;5.50;99.90
25718;DHT22;13574;52.040;5.692;2023-02-28T04:20:03;5.20;99.90
25718;DHT22;13574;52.040;5.692;2023-02-28T04:22:29;5.10;99.90
25718;DHT22;13574;52.040;5.692;2023-02-28T04:24:54;4.90;99.90
25718;DHT22;13574;52.040;5.692;2023-02-28T04:27:21;4.70;99.90
25718;DHT22;13574;52.040;5.692;2023-02-28T04:29:46;4.60;99.90
25718;DHT22;13574;52.040;5.692;2023-02-28T04:32:12;4.70;99.90
25718;DHT22;13574;52.040;5.692;2023-02-28T04:34:38;5.00;99.90
25718;DHT22;13574;52.040;5.692;2023-02-28T04:37:05;5.00;99.90
25718;DHT22;13574;52.040;5.692;2023-02-28T04:39:34;5.20;99.90
25718;DHT22;13574;52.040;5.692;2023-02-28T04:41:59;5.10;99.90
25718;DHT22;13574;52.040;5.692;2023-02-28T04:44:25;5.10;99.90
25718;DHT22;13574;52.040;5.692;2023-02-28T04:46:51;5.00;99.90
25718;DHT22;13574;52.040;5.692;2023-02-28T04:49:16;5.00;99.90
25718;DHT22;13574;52.040;5.692;2023-02-28T04:51:42;4.70;99.90
25718;DHT22;13574;52.040;5.692;2023-02-28T04:54:08;4.90;99.90
25718;DHT22;13574;52.040;5.692;2023-02-28T04:56:34;5.20;99.90
25718;DHT22;13574;52.040;5.692;2023-02-28T04:58:59;5.50;99.90
25718;DHT22;13574;52.040;5.692;2023-02-28T05:01:30;5.50;99.90
25718;DHT22;13574;52.040;5.692;2023-02-28T05:03:58;5.70;99.90
25718;DHT22;13574;52.040;5.692;2023-02-28T05:06:26;5.90;99.90
25718;DHT22;13574;52.040;5.692;2023-02-28T05:08:52;6.00;99.90
25718;DHT22;13574;52.040;5.692;2023-02-28T05:11:30;6.00;99.90
25718;DHT22;13574;52.040;5.692;2023-02-28T05:14:01;6.10;99.90
25718;DHT22;13574;52.040;5.692;2023-02-28T05:16:27;6.10;99.90
25718;DHT22;13574;52.040;5.692;2023-02-28T05:18:53;6.30;99.90
25718;DHT22;13574;52.040;5.692;2023-02-28T05:21:27;6.40;99.90
25718;DHT22;13574;52.040;5.692;2023-02-28T05:23:54;6.50;99.90
25718;DHT22;13574;52.040;5.692;2023-02-28T05:26:20;6.50;99.90
25718;DHT22;13574;52.040;5.692;2023-02-28T05:28:45;6.40;99.90
25718;DHT22;13574;52.040;5.692;2023-02-28T05:31:13;6.40;99.90
25718;DHT22;13574;52.040;5.692;2023-02-28T05:33:39;6.30;99.90
25718;DHT22;13574;52.040;5.692;2023-02-28T05:36:05;6.40;99.90
25718;DHT22;13574;52.040;5.692;2023-02-28T05:38:31;6.50;99.90
25718;DHT22;13574;52.040;5.692;2023-02-28T05:40:57;6.50;99.90
25718;DHT22;13574;52.040;5.692;2023-02-28T05:43:23;6.60;99.90
25718;DHT22;13574;52.040;5.692;2023-02-28T05:45:49;6.50;99.90
25718;DHT22;13574;52.040;5.692;2023-02-28T05:48:15;6.30;99.90
25718;DHT22;13574;52.040;5.692;2023-02-28T05:50:40;6.40;99.90
25718;DHT22;13574;52.040;5.692;2023-02-28T05:53:08;6.40;99.90
25718;DHT22;13574;52.040;5.692;2023-02-28T05:55:33;6.40;99.90
25718;DHT22;13574;52.040;5.692;2023-02-28T05:58:01;6.30;99.90
25718;DHT22;13574;52.040;5.692;2023-02-28T06:00:27;6.40;99.90
25718;DHT22;13574;52.040;5.692;2023-02-28T06:02:53;6.40;99.90
25718;DHT22;13574;52.040;5.692;2023-02-28T06:05:21;6.50;99.90
25718;DHT22;13574;52.040;5.692;2023-02-28T06:07:47;6.40;99.90
25718;DHT22;13574;52.040;5.692;2023-02-28T06:10:13;6.30;99.90
25718;DHT22;13574;52.040;5.692;2023-02-28T06:12:39;6.40;99.90
25718;DHT22;13574;52.040;5.692;2023-02-28T06:15:11;6.30;99.90
25718;DHT22;13574;52.040;5.692;2023-02-28T06:17:37;6.30;99.90
25718;DHT22;13574;52.040;5.692;2023-02-28T06:20:03;6.30;99.90
25718;DHT22;13574;52.040;5.692;2023-02-28T06:22:29;6.10;99.90
25718;DHT22;13574;52.040;5.692;2023-02-28T06:24:55;5.60;99.90
25718;DHT22;13574;52.040;5.692;2023-02-28T06:27:22;5.60;99.90
25718;DHT22;13574;52.040;5.692;2023-02-28T06:29:48;5.80;99.90
25718;DHT22;13574;52.040;5.692;2023-02-28T06:32:15;6.10;99.90
25718;DHT22;13574;52.040;5.692;2023-02-28T06:34:41;6.10;99.90
25718;DHT22;13574;52.040;5.692;2023-02-28T06:37:06;5.70;99.90
25718;DHT22;13574;52.040;5.692;2023-02-28T06:39:32;5.30;99.90
25718;DHT22;13574;52.040;5.692;2023-02-28T06:41:58;5.60;99.90
25718;DHT22;13574;52.040;5.692;2023-02-28T06:44:24;5.80;99.90
25718;DHT22;13574;52.040;5.692;2023-02-28T06:46:50;5.90;99.90
25718;DHT22;13574;52.040;5.692;2023-02-28T06:49:16;6.10;99.90
25718;DHT22;13574;52.040;5.692;2023-02-28T06:51:44;6.10;99.90
25718;DHT22;13574;52.040;5.692;2023-02-28T06:54:13;6.20;99.90
25718;DHT22;13574;52.040;5.692;2023-02-28T06:56:39;6.30;99.90
25718;DHT22;13574;52.040;5.692;2023-02-28T06:59:05;6.40;99.90
25718;DHT22;13574;52.040;5.692;2023-02-28T07:01:36;6.40;99.90
25718;DHT22;13574;52.040;5.692;2023-02-28T07:04:02;6.50;99.90
25718;DHT22;13574;52.040;5.692;2023-02-28T07:06:31;6.60;99.90
25718;DHT22;13574;52.040;5.692;2023-02-28T07:08:57;6.70;99.90
25718;DHT22;13574;52.040;5.692;2023-02-28T07:11:26;6.80;99.90
25718;DHT22;13574;52.040;5.692;2023-02-28T07:13:56;6.80;99.90
25718;DHT22;13574;52.040;5.692;2023-02-28T07:16:23;6.80;99.90
25718;DHT22;13574;52.040;5.692;2023-02-28T07:18:49;6.80;99.90
25718;DHT22;13574;52.040;5.692;2023-02-28T07:21:15;6.80;99.90
25718;DHT22;13574;52.040;5.692;2023-02-28T07:23:41;6.80;99.90
25718;DHT22;13574;52.040;5.692;2023-02-28T07:26:11;6.90;99.90
25718;DHT22;13574;52.040;5.692;2023-02-28T07:28:43;6.80;99.90
25718;DHT22;13574;52.040;5.692;2023-02-28T07:31:09;6.50;99.90
25718;DHT22;13574;52.040;5.692;2023-02-28T07:33:35;6.50;99.90
25718;DHT22;13574;52.040;5.692;2023-02-28T07:36:07;6.40;99.90
25718;DHT22;13574;52.040;5.692;2023-02-28T07:38:35;6.40;99.90
25718;DHT22;13574;52.040;5.692;2023-02-28T07:41:01;6.30;99.90
25718;DHT22;13574;52.040;5.692;2023-02-28T07:43:30;6.50;99.90
25718;DHT22;13574;52.040;5.692;2023-02-28T07:46:04;6.60;99.90
25718;DHT22;13574;52.040;5.692;2023-02-28T07:48:31;6.70;99.90
25718;DHT22;13574;52.040;5.692;2023-02-28T07:50:57;6.80;99.90
25718;DHT22;13574;52.040;5.692;2023-02-28T07:53:26;6.60;99.90
25718;DHT22;13574;52.040;5.692;2023-02-28T07:55:58;6.80;99.90
25718;DHT22;13574;52.040;5.692;2023-02-28T07:58:24;6.50;99.90
25718;DHT22;13574;52.040;5.692;2023-02-28T08:00:50;6.60;99.90
25718;DHT22;13574;52.040;5.692;2023-02-28T08:03:21;6.80;99.90
25718;DHT22;13574;52.040;5.692;2023-02-28T08:05:47;6.80;99.90
25718;DHT22;13574;52.040;5.692;2023-02-28T08:08:13;6.80;99.90
25718;DHT22;13574;52.040;5.692;2023-02-28T08:10:39;6.70;99.90
25718;DHT22;13574;52.040;5.692;2023-02-28T08:13:05;6.70;99.90
25718;DHT22;13574;52.040;5.692;2023-02-28T08:15:31;7.00;99.90
25718;DHT22;13574;52.040;5.692;2023-02-28T08:17:57;7.10;99.90
25718;DHT22;13574;52.040;5.692;2023-02-28T08:20:24;7.20;99.90
25718;DHT22;13574;52.040;5.692;2023-02-28T08:22:49;7.50;99.90
25718;DHT22;13574;52.040;5.692;2023-02-28T08:25:15;7.70;99.90
25718;DHT22;13574;52.040;5.692;2023-02-28T08:27:41;7.90;99.60
25718;DHT22;13574;52.040;5.692;2023-02-28T08:30:08;7.90;99.10
25718;DHT22;13574;52.040;5.692;2023-02-28T08:32:35;7.60;99.20
25718;DHT22;13574;52.040;5.692;2023-02-28T08:35:00;7.70;99.20
25718;DHT22;13574;52.040;5.692;2023-02-28T08:37:28;7.50;95.80
25718;DHT22;13574;52.040;5.692;2023-02-28T08:39:54;7.20;95.20
25718;DHT22;13574;52.040;5.692;2023-02-28T08:42:19;7.00;95.30
25718;DHT22;13574;52.040;5.692;2023-02-28T08:44:45;7.10;94.80
25718;DHT22;13574;52.040;5.692;2023-02-28T08:47:11;7.20;94.90
25718;DHT22;13574;52.040;5.692;2023-02-28T08:49:37;7.40;95.30
25718;DHT22;13574;52.040;5.692;2023-02-28T08:52:03;7.70;94.70
25718;DHT22;13574;52.040;5.692;2023-02-28T08:54:29;7.80;93.20
25718;DHT22;13574;52.040;5.692;2023-02-28T08:56:56;7.60;93.90
25718;DHT22;13574;52.040;5.692;2023-02-28T08:59:22;7.40;93.30
25718;DHT22;13574;52.040;5.692;2023-02-28T09:01:48;7.00;93.90
25718;DHT22;13574;52.040;5.692;2023-02-28T09:04:14;6.90;93.70
25718;DHT22;13574;52.040;5.692;2023-02-28T09:06:40;6.80;93.00
25718;DHT22;13574;52.040;5.692;2023-02-28T09:09:06;6.50;93.80
25718;DHT22;13574;52.040;5.692;2023-02-28T09:11:33;6.30;94.00
25718;DHT22;13574;52.040;5.692;2023-02-28T09:13:59;6.40;93.60
25718;DHT22;13574;52.040;5.692;2023-02-28T09:16:26;6.50;92.80
25718;DHT22;13574;52.040;5.692;2023-02-28T09:18:51;6.40;93.00
25718;DHT22;13574;52.040;5.692;2023-02-28T09:21:18;6.40;92.80
25718;DHT22;13574;52.040;5.692;2023-02-28T09:23:46;6.20;93.80
25718;DHT22;13574;52.040;5.692;2023-02-28T09:26:17;6.10;93.40
25718;DHT22;13574;52.040;5.692;2023-02-28T09:28:44;6.40;93.40
25718;DHT22;13574;52.040;5.692;2023-02-28T09:31:15;6.20;92.40
25718;DHT22;13574;52.040;5.692;2023-02-28T09:33:41;6.10;92.60
25718;DHT22;13574;52.040;5.692;2023-02-28T09:36:07;6.00;92.90
25718;DHT22;13574;52.040;5.692;2023-02-28T09:38:33;6.00;93.50
25718;DHT22;13574;52.040;5.692;2023-02-28T09:41:09;6.30;93.30
25718;DHT22;13574;52.040;5.692;2023-02-28T09:43:38;6.60;91.90
25718;DHT22;13574;52.040;5.692;2023-02-28T09:48:51;6.40;91.70
25718;DHT22;13574;52.040;5.692;2023-02-28T09:54:15;6.30;91.50
25718;DHT22;13574;52.040;5.692;2023-02-28T09:56:56;6.30;92.20
25718;DHT22;13574;52.040;5.692;2023-02-28T09:59:50;6.30;92.50
25718;DHT22;13574;52.040;5.692;2023-02-28T10:05:43;7.10;91.50
25718;DHT22;13574;52.040;5.692;2023-02-28T10:08:29;7.10;91.70
25718;DHT22;13574;52.040;5.692;2023-02-28T10:11:05;7.00;91.40
25718;DHT22;13574;52.040;5.692;2023-02-28T10:13:42;7.00;91.70
25718;DHT22;13574;52.040;5.692;2023-02-28T10:16:15;7.00;91.20
25718;DHT22;13574;52.040;5.692;2023-02-28T10:18:44;7.00;91.70
25718;DHT22;13574;52.040;5.692;2023-02-28T10:21:23;6.90;91.10
25718;DHT22;13574;52.040;5.692;2023-02-28T10:23:56;6.90;91.80
25718;DHT22;13574;52.040;5.692;2023-02-28T10:26:26;7.00;91.20
25718;DHT22;13574;52.040;5.692;2023-02-28T10:28:54;7.20;91.30
25718;DHT22;13574;52.040;5.692;2023-02-28T10:31:20;7.20;90.70
25718;DHT22;13574;52.040;5.692;2023-02-28T10:33:47;6.90;90.80
25718;DHT22;13574;52.040;5.692;2023-02-28T10:36:19;6.80;91.30
25718;DHT22;13574;52.040;5.692;2023-02-28T10:38:46;6.80;91.70
25718;DHT22;13574;52.040;5.692;2023-02-28T10:41:27;6.80;91.70
25718;DHT22;13574;52.040;5.692;2023-02-28T10:44:20;6.80;92.40
25718;DHT22;13574;52.040;5.692;2023-02-28T10:46:46;6.60;91.50
25718;DHT22;13574;52.040;5.692;2023-02-28T10:49:22;6.80;92.00
25718;DHT22;13574;52.040;5.692;2023-02-28T10:51:54;7.10;91.70
25718;DHT22;13574;52.040;5.692;2023-02-28T10:54:30;7.10;92.90
25718;DHT22;13574;52.040;5.692;2023-02-28T10:57:20;7.20;92.80
25718;DHT22;13574;52.040;5.692;2023-02-28T10:59:51;7.50;92.00
25718;DHT22;13574;52.040;5.692;2023-02-28T11:02:33;7.40;91.90
25718;DHT22;13574;52.040;5.692;2023-02-28T11:04:59;7.20;92.20
25718;DHT22;13574;52.040;5.692;2023-02-28T11:07:26;7.20;92.20
25718;DHT22;13574;52.040;5.692;2023-02-28T11:09:55;7.50;91.70
25718;DHT22;13574;52.040;5.692;2023-02-28T11:12:31;7.70;92.50
25718;DHT22;13574;52.040;5.692;2023-02-28T11:15:06;7.80;92.30
25718;DHT22;13574;52.040;5.692;2023-02-28T11:17:33;7.40;91.70
25718;DHT22;13574;52.040;5.692;2023-02-28T11:20:06;7.10;92.10
25718;DHT22;13574;52.040;5.692;2023-02-28T11:22:37;7.10;92.60
25718;DHT22;13574;52.040;5.692;2023-02-28T11:27:58;7.70;92.20
25718;DHT22;13574;52.040;5.692;2023-02-28T11:32:52;8.10;91.30
25718;DHT22;13574;52.040;5.692;2023-02-28T11:35:24;7.70;91.50
25718;DHT22;13574;52.040;5.692;2023-02-28T11:37:51;7.30;92.10
25718;DHT22;13574;52.040;5.692;2023-02-28T11:40:24;7.40;93.00
25718;DHT22;13574;52.040;5.692;2023-02-28T11:43:08;7.50;92.50
25718;DHT22;13574;52.040;5.692;2023-02-28T11:51:26;6.90;92.20
25718;DHT22;13574;52.040;5.692;2023-02-28T11:54:21;6.90;92.30
25718;DHT22;13574;52.040;5.692;2023-02-28T11:56:58;7.20;92.40
25718;DHT22;13574;52.040;5.692;2023-02-28T12:02:05;7.80;92.10
25718;DHT22;13574;52.040;5.692;2023-02-28T12:07:18;7.30;91.20
25718;DHT22;13574;52.040;5.692;2023-02-28T12:12:53;6.90;92.00
25718;DHT22;13574;52.040;5.692;2023-02-28T12:26:38;7.70;91.50
25718;DHT22;13574;52.040;5.692;2023-02-28T12:29:13;7.60;90.90
25718;DHT22;13574;52.040;5.692;2023-02-28T12:31:45;7.40;91.30
25718;DHT22;13574;52.040;5.692;2023-02-28T12:34:28;7.30;91.00
25718;DHT22;13574;52.040;5.692;2023-02-28T12:36:58;7.50;91.50
25718;DHT22;13574;52.040;5.692;2023-02-28T12:39:29;7.50;91.20
25718;DHT22;13574;52.040;5.692;2023-02-28T12:42:01;7.40;91.00
25718;DHT22;13574;52.040;5.692;2023-02-28T12:44:46;7.40;91.60
25718;DHT22;13574;52.040;5.692;2023-02-28T12:47:16;7.60;91.20
25718;DHT22;13574;52.040;5.692;2023-02-28T12:50:05;7.80;91.20
25718;DHT22;13574;52.040;5.692;2023-02-28T12:58:35;7.50;91.10
25718;DHT22;13574;52.040;5.692;2023-02-28T13:07:10;8.30;91.20
25718;DHT22;13574;52.040;5.692;2023-02-28T13:09:39;8.50;90.60
25718;DHT22;13574;52.040;5.692;2023-02-28T13:12:16;8.50;90.40
25718;DHT22;13574;52.040;5.692;2023-02-28T13:14:42;8.40;90.40
25718;DHT22;13574;52.040;5.692;2023-02-28T13:22:37;8.10;90.20
25718;DHT22;13574;52.040;5.692;2023-02-28T13:27:55;8.00;90.30
25718;DHT22;13574;52.040;5.692;2023-02-28T13:33:59;7.70;90.40
25718;DHT22;13574;52.040;5.692;2023-02-28T13:36:27;8.00;90.30
25718;DHT22;13574;52.040;5.692;2023-02-28T13:39:03;8.10;90.10
25718;DHT22;13574;52.040;5.692;2023-02-28T13:44:14;8.20;90.00
25718;DHT22;13574;52.040;5.692;2023-02-28T13:49:32;8.10;89.10
25718;DHT22;13574;52.040;5.692;2023-02-28T13:54:58;8.20;89.10
25718;DHT22;13574;52.040;5.692;2023-02-28T14:03:32;8.30;90.20
25718;DHT22;13574;52.040;5.692;2023-02-28T14:06:34;8.50;89.20
25718;DHT22;13574;52.040;5.692;2023-02-28T14:09:24;8.00;89.20
25718;DHT22;13574;52.040;5.692;2023-02-28T14:11:54;8.20;89.00
25718;DHT22;13574;52.040;5.692;2023-02-28T14:17:08;8.40;90.10
25718;DHT22;13574;52.040;5.692;2023-02-28T14:19:38;8.50;89.30
25718;DHT22;13574;52.040;5.692;2023-02-28T14:25:31;8.30;87.70
25718;DHT22;13574;52.040;5.692;2023-02-28T14:30:52;8.50;88.10
25718;DHT22;13574;52.040;5.692;2023-02-28T14:33:31;8.40;88.10
25718;DHT22;13574;52.040;5.692;2023-02-28T14:38:45;8.20;87.70
25718;DHT22;13574;52.040;5.692;2023-02-28T14:41:17;8.20;88.20
25718;DHT22;13574;52.040;5.692;2023-02-28T14:43:50;8.20;88.90
25718;DHT22;13574;52.040;5.692;2023-02-28T14:46:17;8.20;89.40
25718;DHT22;13574;52.040;5.692;2023-02-28T14:48:46;8.40;88.60
25718;DHT22;13574;52.040;5.692;2023-02-28T14:51:17;8.50;88.50
25718;DHT22;13574;52.040;5.692;2023-02-28T14:53:43;8.70;89.20
25718;DHT22;13574;52.040;5.692;2023-02-28T14:56:21;8.40;88.80
25718;DHT22;13574;52.040;5.692;2023-02-28T14:58:52;8.40;89.60
25718;DHT22;13574;52.040;5.692;2023-02-28T15:01:20;8.50;89.70
25718;DHT22;13574;52.040;5.692;2023-02-28T15:03:47;8.60;88.60
25718;DHT22;13574;52.040;5.692;2023-02-28T15:06:17;8.40;88.90
25718;DHT22;13574;52.040;5.692;2023-02-28T15:08:44;8.50;88.90
25718;DHT22;13574;52.040;5.692;2023-02-28T15:11:16;8.30;90.00
25718;DHT22;13574;52.040;5.692;2023-02-28T15:13:46;8.70;88.50
25718;DHT22;13574;52.040;5.692;2023-02-28T15:16:20;8.10;88.80
25718;DHT22;13574;52.040;5.692;2023-02-28T15:19:02;8.30;89.60
25718;DHT22;13574;52.040;5.692;2023-02-28T15:21:34;8.00;90.00
25718;DHT22;13574;52.040;5.692;2023-02-28T15:24:07;8.50;90.00
25718;DHT22;13574;52.040;5.692;2023-02-28T15:26:39;8.70;90.00
25718;DHT22;13574;52.040;5.692;2023-02-28T15:29:26;8.80;89.50
25718;DHT22;13574;52.040;5.692;2023-02-28T15:32:03;8.80;89.20
25718;DHT22;13574;52.040;5.692;2023-02-28T15:39:51;8.80;88.20
25718;DHT22;13574;52.040;5.692;2023-02-28T15:42:20;8.50;89.90
25718;DHT22;13574;52.040;5.692;2023-02-28T15:44:46;8.40;89.60
25718;DHT22;13574;52.040;5.692;2023-02-28T15:47:19;8.30;90.10
25718;DHT22;13574;52.040;5.692;2023-02-28T15:49:56;8.30;90.10
25718;DHT22;13574;52.040;5.692;2023-02-28T15:54:52;8.40;89.30
25718;DHT22;13574;52.040;5.692;2023-02-28T15:57:21;8.30;90.30
25718;DHT22;13574;52.040;5.692;2023-02-28T16:00:00;8.50;90.00
25718;DHT22;13574;52.040;5.692;2023-02-28T16:02:37;8.80;89.30
25718;DHT22;13574;52.040;5.692;2023-02-28T16:07:32;8.60;88.40
25718;DHT22;13574;52.040;5.692;2023-02-28T16:09:59;8.30;88.80
25718;DHT22;13574;52.040;5.692;2023-02-28T16:12:28;8.50;89.60
25718;DHT22;13574;52.040;5.692;2023-02-28T16:14:57;8.60;89.00
25718;DHT22;13574;52.040;5.692;2023-02-28T16:17:26;8.40;89.30
25718;DHT22;13574;52.040;5.692;2023-02-28T16:19:53;8.40;88.50
25718;DHT22;13574;52.040;5.692;2023-02-28T16:22:19;8.50;89.10
25718;DHT22;13574;52.040;5.692;2023-02-28T16:24:45;8.60;89.40
25718;DHT22;13574;52.040;5.692;2023-02-28T16:27:27;8.60;89.60
25718;DHT22;13574;52.040;5.692;2023-02-28T16:29:55;8.60;89.20
25718;DHT22;13574;52.040;5.692;2023-02-28T16:32:20;8.50;89.90
25718;DHT22;13574;52.040;5.692;2023-02-28T16:34:46;8.50;89.40
25718;DHT22;13574;52.040;5.692;2023-02-28T16:37:14;8.30;89.90
25718;DHT22;13574;52.040;5.692;2023-02-28T16:39:41;8.10;89.10
25718;DHT22;13574;52.040;5.692;2023-02-28T16:42:12;8.30;88.80
25718;DHT22;13574;52.040;5.692;2023-02-28T16:44:40;8.10;88.20
25718;DHT22;13574;52.040;5.692;2023-02-28T16:47:10;8.20;88.90
25718;DHT22;13574;52.040;5.692;2023-02-28T16:49:36;8.30;88.20
25718;DHT22;13574;52.040;5.692;2023-02-28T16:52:01;8.00;88.90
25718;DHT22;13574;52.040;5.692;2023-02-28T16:54:27;8.10;88.50
25718;DHT22;13574;52.040;5.692;2023-02-28T16:56:53;8.00;88.40
25718;DHT22;13574;52.040;5.692;2023-02-28T16:59:22;8.00;90.00
25718;DHT22;13574;52.040;5.692;2023-02-28T17:01:49;7.90;88.50
25718;DHT22;13574;52.040;5.692;2023-02-28T17:04:18;7.80;88.70
25718;DHT22;13574;52.040;5.692;2023-02-28T17:06:44;7.70;89.10
25718;DHT22;13574;52.040;5.692;2023-02-28T17:09:23;7.50;89.10
25718;DHT22;13574;52.040;5.692;2023-02-28T17:11:49;7.50;89.70
25718;DHT22;13574;52.040;5.692;2023-02-28T17:14:15;7.70;89.60
25718;DHT22;13574;52.040;5.692;2023-02-28T17:16:41;7.60;89.70
25718;DHT22;13574;52.040;5.692;2023-02-28T17:19:13;7.30;89.70
25718;DHT22;13574;52.040;5.692;2023-02-28T17:21:40;7.60;90.10
25718;DHT22;13574;52.040;5.692;2023-02-28T17:24:07;7.60;89.70
25718;DHT22;13574;52.040;5.692;2023-02-28T17:26:33;7.80;90.00
25718;DHT22;13574;52.040;5.692;2023-02-28T17:28:59;7.90;90.00
25718;DHT22;13574;52.040;5.692;2023-02-28T17:31:25;7.90;90.20
25718;DHT22;13574;52.040;5.692;2023-02-28T17:33:52;7.70;89.70
25718;DHT22;13574;52.040;5.692;2023-02-28T17:36:22;7.70;90.30
25718;DHT22;13574;52.040;5.692;2023-02-28T17:38:48;7.60;90.60
25718;DHT22;13574;52.040;5.692;2023-02-28T17:41:14;7.60;90.50
25718;DHT22;13574;52.040;5.692;2023-02-28T17:43:40;7.40;90.90
25718;DHT22;13574;52.040;5.692;2023-02-28T17:46:16;7.40;90.80
25718;DHT22;13574;52.040;5.692;2023-02-28T17:48:43;7.50;91.60
25718;DHT22;13574;52.040;5.692;2023-02-28T17:51:12;7.50;92.00
25718;DHT22;13574;52.040;5.692;2023-02-28T17:53:38;7.50;92.00
25718;DHT22;13574;52.040;5.692;2023-02-28T17:56:04;7.40;91.70
25718;DHT22;13574;52.040;5.692;2023-02-28T17:58:30;7.40;92.50
25718;DHT22;13574;52.040;5.692;2023-02-28T18:00:59;7.40;93.60
25718;DHT22;13574;52.040;5.692;2023-02-28T18:03:25;7.40;93.90
25718;DHT22;13574;52.040;5.692;2023-02-28T18:05:53;7.30;93.50
25718;DHT22;13574;52.040;5.692;2023-02-28T18:08:19;7.20;92.80
25718;DHT22;13574;52.040;5.692;2023-02-28T18:10:45;7.20;93.00
25718;DHT22;13574;52.040;5.692;2023-02-28T18:13:11;7.00;92.30
25718;DHT22;13574;52.040;5.692;2023-02-28T18:15:38;6.90;92.90
25718;DHT22;13574;52.040;5.692;2023-02-28T18:18:03;6.80;92.90